Time;durP1;ratioP1;P1;durP2;ratioP2;P2;SDS_P1;SDS_P2;PMS_P1;PMS_P2;Temp;Humidity;BMP_temperature;BMP_pressure;BME280_temperature;BME280_humidity;BME280_pressure;Samples;Min_cycle;Max_cycle;Signal;HPM_P1;HPM_P2
2023/03/17 00:02:23;;;;;;;9.18;3.88;;;;;;;;;;5076251;28;20545;-69
2023/03/17 00:04:51;;;;;;;7.72;3.42;;;;;;;;;;5079798;28;20434;-70
2023/03/17 00:07:20;;;;;;;6.47;3.70;;;;;;;;;;5075642;28;20063;-70
2023/03/17 00:09:47;;;;;;;6.15;3.55;;;;;;;;;;5076749;28;20043;-69
2023/03/17 00:12:14;;;;;;;5.50;3.33;;;;;;;;;;5083011;28;20467;-69
2023/03/17 00:14:43;;;;;;;6.72;3.42;;;;;;;;;;5081337;28;20399;-69
2023/03/17 00:17:12;;;;;;;9.27;3.60;;;;;;;;;;5082733;28;20048;-71
2023/03/17 00:19:40;;;;;;;6.47;3.05;;;;;;;;;;5087706;28;20101;-71
2023/03/17 00:22:14;;;;;;;6.32;3.42;;;;;;;;;;5079353;28;20051;-69
2023/03/17 00:24:43;;;;;;;6.93;3.88;;;;;;;;;;5077201;28;20395;-69
2023/03/17 00:27:12;;;;;;;8.40;3.80;;;;;;;;;;5079511;28;20218;-69
2023/03/17 00:29:39;;;;;;;12.05;3.50;;;;;;;;;;5075942;28;20105;-69
2023/03/17 00:32:07;;;;;;;8.40;3.55;;;;;;;;;;5079572;28;20049;-69
2023/03/17 00:34:35;;;;;;;9.77;3.83;;;;;;;;;;5075697;28;20056;-69
2023/03/17 00:37:03;;;;;;;6.10;3.55;;;;;;;;;;5079329;28;20088;-69
2023/03/17 00:39:30;;;;;;;6.65;3.58;;;;;;;;;;5082545;28;20131;-69
2023/03/17 00:41:58;;;;;;;6.50;3.50;;;;;;;;;;5068474;28;20044;-69
2023/03/17 00:44:26;;;;;;;8.77;3.25;;;;;;;;;;5059644;28;20048;-69
2023/03/17 00:46:55;;;;;;;6.40;3.70;;;;;;;;;;5082154;28;20490;-69
2023/03/17 00:49:23;;;;;;;7.82;3.00;;;;;;;;;;5083707;28;20125;-69
2023/03/17 00:51:51;;;;;;;9.60;3.30;;;;;;;;;;5080059;28;20104;-69
2023/03/17 00:54:19;;;;;;;5.53;3.05;;;;;;;;;;5059207;28;20052;-69
2023/03/17 00:56:47;;;;;;;5.05;2.95;;;;;;;;;;5083346;28;20122;-69
2023/03/17 00:59:20;;;;;;;7.53;3.50;;;;;;;;;;5085145;28;20511;-69
2023/03/17 01:01:47;;;;;;;7.18;3.40;;;;;;;;;;5083591;28;20048;-69
2023/03/17 01:04:15;;;;;;;7.60;3.45;;;;;;;;;;5083566;28;20059;-69
2023/03/17 01:06:42;;;;;;;5.05;3.03;;;;;;;;;;5086671;28;20052;-69
2023/03/17 01:09:12;;;;;;;6.13;3.40;;;;;;;;;;5084420;28;20048;-69
2023/03/17 01:11:40;;;;;;;6.97;3.20;;;;;;;;;;5086533;28;20044;-69
2023/03/17 01:14:08;;;;;;;5.97;3.10;;;;;;;;;;5084788;28;20040;-69
2023/03/17 01:16:37;;;;;;;7.03;3.10;;;;;;;;;;5085673;28;20080;-69
2023/03/17 01:19:05;;;;;;;8.80;3.35;;;;;;;;;;5090464;28;20048;-69
2023/03/17 01:21:32;;;;;;;6.38;3.35;;;;;;;;;;5072096;28;20052;-69
2023/03/17 01:24:00;;;;;;;6.78;3.20;;;;;;;;;;5090591;28;20047;-69
2023/03/17 01:26:28;;;;;;;5.90;3.15;;;;;;;;;;5083780;28;20048;-69
2023/03/17 01:28:55;;;;;;;6.22;3.38;;;;;;;;;;5083756;28;20363;-69
2023/03/17 01:31:23;;;;;;;9.40;3.13;;;;;;;;;;5087572;28;20040;-69
2023/03/17 01:33:51;;;;;;;6.82;3.30;;;;;;;;;;5079002;28;20074;-69
2023/03/17 01:36:19;;;;;;;5.82;3.17;;;;;;;;;;5085114;28;20044;-69
2023/03/17 01:38:49;;;;;;;5.75;3.05;;;;;;;;;;5083270;28;20044;-69
2023/03/17 01:41:16;;;;;;;6.38;3.00;;;;;;;;;;5086579;28;20133;-69
2023/03/17 01:43:44;;;;;;;5.50;3.10;;;;;;;;;;5077105;28;20453;-69
2023/03/17 01:46:23;;;;;;;4.82;3.05;;;;;;;;;;5089375;28;20058;-69
2023/03/17 01:49:03;;;;;;;7.40;3.22;;;;;;;;;;5089743;28;20359;-69
2023/03/17 01:51:32;;;;;;;7.45;3.25;;;;;;;;;;5086458;28;20052;-69
2023/03/17 01:54:00;;;;;;;11.68;3.13;;;;;;;;;;5089641;28;20055;-69
2023/03/17 01:56:29;;;;;;;7.43;3.03;;;;;;;;;;5086216;28;20043;-69
2023/03/17 01:58:57;;;;;;;7.05;3.22;;;;;;;;;;5084275;28;20445;-69
2023/03/17 02:01:28;;;;;;;7.55;3.00;;;;;;;;;;5089555;28;20062;-69
2023/03/17 02:03:55;;;;;;;6.50;3.42;;;;;;;;;;5087848;28;20574;-69
2023/03/17 02:06:25;;;;;;;5.07;3.00;;;;;;;;;;5085596;28;20058;-69
2023/03/17 02:08:52;;;;;;;7.70;3.30;;;;;;;;;;5087669;28;20044;-69
2023/03/17 02:11:21;;;;;;;6.85;3.08;;;;;;;;;;5084003;28;20066;-69
2023/03/17 02:13:48;;;;;;;6.65;2.97;;;;;;;;;;5088018;28;20101;-69
2023/03/17 02:16:16;;;;;;;6.03;3.40;;;;;;;;;;5089739;28;20266;-69
2023/03/17 02:18:43;;;;;;;5.88;2.60;;;;;;;;;;5081097;28;20048;-69
2023/03/17 02:21:38;;;;;;;5.72;3.05;;;;;;;;;;5086268;28;20052;-69
2023/03/17 02:24:09;;;;;;;7.15;3.40;;;;;;;;;;5086126;28;20076;-69
2023/03/17 02:26:37;;;;;;;6.05;2.70;;;;;;;;;;5084331;28;20076;-69
2023/03/17 02:29:05;;;;;;;8.43;3.03;;;;;;;;;;5085853;28;20059;-69
2023/03/17 02:31:33;;;;;;;4.82;2.75;;;;;;;;;;5089175;28;20076;-69
2023/03/17 02:34:01;;;;;;;5.97;2.72;;;;;;;;;;5090114;28;20051;-69
2023/03/17 02:36:28;;;;;;;6.20;3.00;;;;;;;;;;5077118;28;20049;-69
2023/03/17 02:38:56;;;;;;;6.75;2.78;;;;;;;;;;5085228;28;20058;-69
2023/03/17 02:41:25;;;;;;;6.45;2.85;;;;;;;;;;5086371;28;20052;-69
2023/03/17 02:43:52;;;;;;;7.38;3.10;;;;;;;;;;5087884;28;20522;-69
2023/03/17 02:46:20;;;;;;;4.53;2.58;;;;;;;;;;5085910;28;20056;-69
2023/03/17 02:48:47;;;;;;;6.15;2.72;;;;;;;;;;5087574;28;20127;-69
2023/03/17 02:51:15;;;;;;;6.88;2.83;;;;;;;;;;5088740;28;20095;-69
2023/03/17 02:53:42;;;;;;;5.50;3.00;;;;;;;;;;5088812;28;20044;-69
2023/03/17 02:56:09;;;;;;;4.63;2.70;;;;;;;;;;5086781;28;20055;-69
2023/03/17 02:58:38;;;;;;;7.05;2.65;;;;;;;;;;5080480;28;20631;-69
2023/03/17 03:01:05;;;;;;;5.00;2.80;;;;;;;;;;5084337;28;20064;-69
2023/03/17 03:03:33;;;;;;;5.20;2.40;;;;;;;;;;5085613;28;20059;-69
2023/03/17 03:06:00;;;;;;;5.28;2.67;;;;;;;;;;5067635;28;20050;-69
2023/03/17 03:08:28;;;;;;;5.10;2.92;;;;;;;;;;5086978;28;20127;-69
2023/03/17 03:10:55;;;;;;;4.10;2.60;;;;;;;;;;5087827;28;20505;-69
2023/03/17 03:13:22;;;;;;;6.60;3.25;;;;;;;;;;5084765;28;20048;-69
2023/03/17 03:15:51;;;;;;;6.45;3.10;;;;;;;;;;5082725;28;20040;-69
2023/03/17 03:18:18;;;;;;;4.35;2.50;;;;;;;;;;5085396;28;20046;-69
2023/03/17 03:20:46;;;;;;;5.45;2.72;;;;;;;;;;5079688;28;20071;-69
2023/03/17 03:23:15;;;;;;;6.32;2.70;;;;;;;;;;5087691;28;20048;-69
2023/03/17 03:25:42;;;;;;;5.30;2.47;;;;;;;;;;5083964;28;20079;-69
2023/03/17 03:28:09;;;;;;;5.63;2.40;;;;;;;;;;5069789;28;20056;-69
2023/03/17 03:30:37;;;;;;;6.53;2.97;;;;;;;;;;5077057;28;20133;-69
2023/03/17 03:33:06;;;;;;;4.68;2.47;;;;;;;;;;5088440;28;20059;-69
2023/03/17 03:35:34;;;;;;;5.65;2.80;;;;;;;;;;5084200;28;20129;-69
2023/03/17 03:38:02;;;;;;;4.32;2.50;;;;;;;;;;5078949;28;20101;-69
2023/03/17 03:40:29;;;;;;;5.80;2.58;;;;;;;;;;5081270;28;20052;-69
2023/03/17 03:42:56;;;;;;;3.58;2.42;;;;;;;;;;5086614;28;20056;-69
2023/03/17 03:45:24;;;;;;;3.70;2.60;;;;;;;;;;5087822;28;20059;-69
2023/03/17 03:47:51;;;;;;;4.88;2.78;;;;;;;;;;5088326;28;20515;-69
2023/03/17 03:50:20;;;;;;;4.10;2.40;;;;;;;;;;5086931;28;20076;-69
2023/03/17 03:52:47;;;;;;;6.45;2.80;;;;;;;;;;5083757;28;20058;-69
2023/03/17 03:55:15;;;;;;;4.68;2.53;;;;;;;;;;5084920;28;20045;-69
2023/03/17 03:57:42;;;;;;;4.78;2.63;;;;;;;;;;5081853;28;20083;-69
2023/03/17 04:00:12;;;;;;;8.27;2.70;;;;;;;;;;5082283;28;20146;-69
2023/03/17 04:02:40;;;;;;;4.38;2.42;;;;;;;;;;5088111;28;20054;-69
2023/03/17 04:05:08;;;;;;;5.13;2.85;;;;;;;;;;5078984;28;20083;-69
2023/03/17 04:07:36;;;;;;;7.03;2.70;;;;;;;;;;5086490;28;20048;-69
2023/03/17 04:10:04;;;;;;;6.20;3.00;;;;;;;;;;5085027;28;20056;-69
2023/03/17 04:12:32;;;;;;;6.18;3.28;;;;;;;;;;5083194;28;20040;-69
2023/03/17 04:14:59;;;;;;;6.75;2.65;;;;;;;;;;5083036;28;20047;-69
2023/03/17 04:17:26;;;;;;;4.03;2.67;;;;;;;;;;5084687;28;20094;-69
2023/03/17 04:19:54;;;;;;;7.13;3.00;;;;;;;;;;5086492;28;20070;-69
2023/03/17 04:22:21;;;;;;;4.15;2.60;;;;;;;;;;5085628;28;20052;-69
2023/03/17 04:24:51;;;;;;;6.05;2.90;;;;;;;;;;5068274;28;20044;-69
2023/03/17 04:27:18;;;;;;;5.13;2.63;;;;;;;;;;5083571;28;20051;-69
2023/03/17 04:29:46;;;;;;;4.57;2.63;;;;;;;;;;5085872;28;20557;-69
2023/03/17 04:32:13;;;;;;;4.72;2.33;;;;;;;;;;5087408;28;20040;-69
2023/03/17 04:34:41;;;;;;;5.70;2.45;;;;;;;;;;5076839;28;20051;-69
2023/03/17 04:37:09;;;;;;;4.95;2.70;;;;;;;;;;5078712;28;20052;-69
2023/03/17 04:39:36;;;;;;;4.45;2.75;;;;;;;;;;5086044;28;20043;-69
2023/03/17 04:42:05;;;;;;;6.32;2.85;;;;;;;;;;5084190;28;20071;-69
2023/03/17 04:44:32;;;;;;;4.97;2.60;;;;;;;;;;5083386;28;20086;-69
2023/03/17 04:47:00;;;;;;;3.28;2.10;;;;;;;;;;5084200;28;20056;-69
2023/03/17 04:49:27;;;;;;;6.32;2.85;;;;;;;;;;5081985;28;20059;-69
2023/03/17 04:51:55;;;;;;;4.80;2.45;;;;;;;;;;5089654;28;20040;-69
2023/03/17 04:54:22;;;;;;;7.07;2.95;;;;;;;;;;5086826;28;20403;-70
2023/03/17 04:56:49;;;;;;;4.60;2.50;;;;;;;;;;5090045;28;20083;-69
2023/03/17 04:59:18;;;;;;;4.55;2.40;;;;;;;;;;5083972;28;20438;-69
2023/03/17 05:01:46;;;;;;;4.35;2.25;;;;;;;;;;5086268;28;20418;-70
2023/03/17 05:04:13;;;;;;;8.13;2.67;;;;;;;;;;5090366;28;20052;-69
2023/03/17 05:06:40;;;;;;;4.35;2.65;;;;;;;;;;5087241;28;20040;-69
2023/03/17 05:09:07;;;;;;;6.82;2.67;;;;;;;;;;5088462;28;20427;-69
2023/03/17 05:11:35;;;;;;;4.80;2.53;;;;;;;;;;5089151;28;20058;-69
2023/03/17 05:14:02;;;;;;;5.00;2.20;;;;;;;;;;5087131;28;20044;-69
2023/03/17 05:16:31;;;;;;;5.70;2.72;;;;;;;;;;5085464;28;20381;-69
2023/03/17 05:18:58;;;;;;;6.22;2.70;;;;;;;;;;5091589;28;20048;-69
2023/03/17 05:21:25;;;;;;;7.47;2.55;;;;;;;;;;5070100;28;20060;-69
2023/03/17 05:23:53;;;;;;;4.60;2.70;;;;;;;;;;5078208;28;20044;-69
2023/03/17 05:26:20;;;;;;;5.47;2.65;;;;;;;;;;5088657;28;20044;-69
2023/03/17 05:28:48;;;;;;;5.43;2.30;;;;;;;;;;5087505;28;20753;-69
2023/03/17 05:31:15;;;;;;;4.22;2.58;;;;;;;;;;5087202;28;20040;-69
2023/03/17 05:33:45;;;;;;;5.40;2.75;;;;;;;;;;5083103;28;20310;-69
2023/03/17 05:36:12;;;;;;;4.00;2.33;;;;;;;;;;5082845;28;20048;-69
2023/03/17 05:38:40;;;;;;;5.88;2.60;;;;;;;;;;5085913;28;20051;-69
2023/03/17 05:41:09;;;;;;;7.72;2.45;;;;;;;;;;5081831;28;20127;-69
2023/03/17 05:43:36;;;;;;;5.53;2.65;;;;;;;;;;5064144;28;20384;-69
2023/03/17 05:46:04;;;;;;;4.90;2.20;;;;;;;;;;5083104;28;20435;-69
2023/03/17 05:48:31;;;;;;;5.05;2.35;;;;;;;;;;5087509;28;20040;-68
2023/03/17 05:51:00;;;;;;;6.55;2.55;;;;;;;;;;5087646;28;20072;-69
2023/03/17 05:53:28;;;;;;;7.18;2.97;;;;;;;;;;5087803;28;20051;-69
2023/03/17 05:55:56;;;;;;;7.25;3.13;;;;;;;;;;5065001;28;20102;-69
2023/03/17 05:58:23;;;;;;;4.53;2.45;;;;;;;;;;5090599;28;20090;-70
2023/03/17 06:00:51;;;;;;;5.50;2.63;;;;;;;;;;5086039;28;20047;-69
2023/03/17 06:03:18;;;;;;;6.65;2.63;;;;;;;;;;5086303;28;20055;-69
2023/03/17 06:05:45;;;;;;;5.85;2.90;;;;;;;;;;5087023;28;20051;-69
2023/03/17 06:08:14;;;;;;;4.53;2.55;;;;;;;;;;5088772;28;20051;-69
2023/03/17 06:10:42;;;;;;;6.38;2.40;;;;;;;;;;5082811;28;20093;-69
2023/03/17 06:13:10;;;;;;;6.15;2.65;;;;;;;;;;5087276;28;20076;-69
2023/03/17 06:15:38;;;;;;;6.65;2.83;;;;;;;;;;5082986;28;20101;-69
2023/03/17 06:18:05;;;;;;;6.78;2.90;;;;;;;;;;5085821;28;20044;-69
2023/03/17 06:20:32;;;;;;;5.53;2.55;;;;;;;;;;5083665;28;20051;-69
2023/03/17 06:23:00;;;;;;;4.70;2.72;;;;;;;;;;5081699;28;20547;-69
2023/03/17 06:25:28;;;;;;;5.85;2.40;;;;;;;;;;5085555;28;20041;-69
2023/03/17 06:27:56;;;;;;;5.85;2.45;;;;;;;;;;5088322;28;20070;-69
2023/03/17 06:30:23;;;;;;;4.63;2.28;;;;;;;;;;5087274;28;20491;-69
2023/03/17 06:32:51;;;;;;;5.63;2.45;;;;;;;;;;5086658;28;20043;-69
2023/03/17 06:35:18;;;;;;;6.13;2.28;;;;;;;;;;5091077;28;20048;-69
2023/03/17 06:37:45;;;;;;;4.65;2.38;;;;;;;;;;5081930;28;20086;-69
2023/03/17 06:40:13;;;;;;;6.50;2.40;;;;;;;;;;5078531;28;20506;-69
2023/03/17 06:42:42;;;;;;;3.80;2.40;;;;;;;;;;5084292;28;20437;-69
2023/03/17 06:45:10;;;;;;;4.43;2.10;;;;;;;;;;5088256;28;20074;-69
2023/03/17 06:47:38;;;;;;;4.25;2.25;;;;;;;;;;5085622;28;20048;-69
2023/03/17 06:50:06;;;;;;;6.85;2.53;;;;;;;;;;5081705;28;20503;-68
2023/03/17 06:52:33;;;;;;;4.35;2.22;;;;;;;;;;5087782;28;20129;-69
2023/03/17 06:55:01;;;;;;;4.40;2.30;;;;;;;;;;5082719;28;20453;-69
2023/03/17 06:57:28;;;;;;;5.15;2.55;;;;;;;;;;5078395;28;20053;-69
2023/03/17 06:59:57;;;;;;;6.57;2.60;;;;;;;;;;5082702;28;20103;-69
2023/03/17 07:02:24;;;;;;;5.28;2.60;;;;;;;;;;5083632;28;20127;-70
2023/03/17 07:04:52;;;;;;;4.65;1.95;;;;;;;;;;5085880;28;20041;-70
2023/03/17 07:07:19;;;;;;;5.07;2.28;;;;;;;;;;5087057;28;20495;-69
2023/03/17 07:09:47;;;;;;;6.38;2.33;;;;;;;;;;5086372;28;20054;-69
2023/03/17 07:12:15;;;;;;;6.18;2.47;;;;;;;;;;5082340;28;20055;-69
2023/03/17 07:14:42;;;;;;;5.28;1.95;;;;;;;;;;5086514;28;20052;-69
2023/03/17 07:17:13;;;;;;;8.15;2.75;;;;;;;;;;5084050;28;20462;-69
2023/03/17 07:19:41;;;;;;;5.50;2.47;;;;;;;;;;5085916;28;20040;-69
2023/03/17 07:22:08;;;;;;;5.15;2.47;;;;;;;;;;5084109;28;20109;-69
2023/03/17 07:24:35;;;;;;;4.85;2.50;;;;;;;;;;5083143;28;20048;-69
2023/03/17 07:27:03;;;;;;;4.43;2.22;;;;;;;;;;5088310;28;20059;-69
2023/03/17 07:29:32;;;;;;;8.38;2.80;;;;;;;;;;5065290;28;20062;-69
2023/03/17 07:32:00;;;;;;;4.20;2.20;;;;;;;;;;5081434;28;20155;-70
2023/03/17 07:34:28;;;;;;;3.92;2.50;;;;;;;;;;5083735;28;20138;-69
2023/03/17 07:36:56;;;;;;;3.88;2.20;;;;;;;;;;5067970;28;20487;-69
2023/03/17 07:39:23;;;;;;;7.47;2.30;;;;;;;;;;5082538;28;20048;-69
2023/03/17 07:41:53;;;;;;;4.10;2.22;;;;;;;;;;5081801;28;20046;-69
2023/03/17 07:44:21;;;;;;;5.78;2.47;;;;;;;;;;5066830;28;20052;-69
2023/03/17 07:46:48;;;;;;;4.72;2.58;;;;;;;;;;5082701;28;20538;-69
2023/03/17 07:49:17;;;;;;;6.00;2.25;;;;;;;;;;5087224;28;20408;-69
2023/03/17 07:51:46;;;;;;;6.82;2.50;;;;;;;;;;5082873;28;20058;-69
2023/03/17 07:54:14;;;;;;;4.07;2.40;;;;;;;;;;5080557;28;20039;-69
2023/03/17 07:56:41;;;;;;;9.55;2.55;;;;;;;;;;5086430;28;20051;-69
2023/03/17 07:59:09;;;;;;;4.75;2.50;;;;;;;;;;5086129;28;20055;-69
2023/03/17 08:01:37;;;;;;;6.22;2.67;;;;;;;;;;5082001;28;20063;-69
2023/03/17 08:04:06;;;;;;;6.10;2.40;;;;;;;;;;5084319;28;20602;-69
2023/03/17 08:06:34;;;;;;;4.82;2.58;;;;;;;;;;5085683;28;20078;-69
2023/03/17 08:09:03;;;;;;;6.57;2.38;;;;;;;;;;5086087;28;20048;-69
2023/03/17 08:11:30;;;;;;;5.18;2.55;;;;;;;;;;5084648;28;20494;-69
2023/03/17 08:13:58;;;;;;;5.85;2.20;;;;;;;;;;5084211;28;20036;-69
2023/03/17 08:16:26;;;;;;;7.57;2.17;;;;;;;;;;5083508;28;20093;-69
2023/03/17 08:18:54;;;;;;;5.80;2.47;;;;;;;;;;5084004;28;20045;-69
2023/03/17 08:21:21;;;;;;;6.63;2.20;;;;;;;;;;5083427;28;20559;-69
2023/03/17 08:23:48;;;;;;;6.07;2.20;;;;;;;;;;5085819;28;20513;-69
2023/03/17 08:26:17;;;;;;;5.25;2.22;;;;;;;;;;5085158;28;20048;-69
2023/03/17 08:28:45;;;;;;;9.95;2.20;;;;;;;;;;5085284;28;20086;-69
2023/03/17 08:31:14;;;;;;;6.88;2.25;;;;;;;;;;5084309;28;20047;-69
2023/03/17 08:33:42;;;;;;;4.78;2.20;;;;;;;;;;5086117;28;20036;-69
2023/03/17 08:36:11;;;;;;;6.25;2.35;;;;;;;;;;5080969;28;20040;-69
2023/03/17 08:38:39;;;;;;;5.13;2.55;;;;;;;;;;5084997;28;20138;-69
2023/03/17 08:41:07;;;;;;;6.05;2.40;;;;;;;;;;5077725;28;20052;-69
2023/03/17 08:43:37;;;;;;;5.80;2.55;;;;;;;;;;5085495;28;20054;-69
2023/03/17 08:46:05;;;;;;;4.38;2.15;;;;;;;;;;5083144;28;20082;-69
2023/03/17 08:48:33;;;;;;;4.47;2.13;;;;;;;;;;5083771;28;20040;-68
2023/03/17 08:51:00;;;;;;;6.30;2.40;;;;;;;;;;5080646;28;20457;-69
2023/03/17 08:53:28;;;;;;;3.75;2.25;;;;;;;;;;5085202;28;20048;-69
2023/03/17 08:55:56;;;;;;;9.90;2.60;;;;;;;;;;5083188;28;20443;-69
2023/03/17 08:58:24;;;;;;;3.63;2.33;;;;;;;;;;5085929;28;20048;-69
2023/03/17 09:00:53;;;;;;;4.45;2.13;;;;;;;;;;5080393;28;20044;-69
2023/03/17 09:03:20;;;;;;;7.10;2.00;;;;;;;;;;5081345;28;20055;-69
2023/03/17 09:05:48;;;;;;;5.68;2.45;;;;;;;;;;5085374;28;20037;-69
2023/03/17 09:08:16;;;;;;;6.60;2.50;;;;;;;;;;5083396;28;20518;-69
2023/03/17 09:10:43;;;;;;;4.90;2.40;;;;;;;;;;5085121;28;20119;-69
2023/03/17 09:13:11;;;;;;;8.75;2.38;;;;;;;;;;5081516;28;20067;-69
2023/03/17 09:15:38;;;;;;;4.50;2.28;;;;;;;;;;5085735;28;20047;-69
2023/03/17 09:18:08;;;;;;;5.57;2.53;;;;;;;;;;5082057;28;20148;-69
2023/03/17 09:20:36;;;;;;;7.07;2.35;;;;;;;;;;5060265;28;20067;-69
2023/03/17 09:23:07;;;;;;;7.95;2.25;;;;;;;;;;5084600;28;20056;-69
2023/03/17 09:25:35;;;;;;;4.90;2.22;;;;;;;;;;5086531;28;20051;-69
2023/03/17 09:28:02;;;;;;;5.50;2.67;;;;;;;;;;5083258;28;20044;-69
2023/03/17 09:30:30;;;;;;;7.25;2.63;;;;;;;;;;5086077;28;20525;-69
2023/03/17 09:32:57;;;;;;;5.15;2.58;;;;;;;;;;5079663;28;20131;-69
2023/03/17 09:35:26;;;;;;;6.13;2.63;;;;;;;;;;5087953;28;20109;-69
2023/03/17 09:37:54;;;;;;;4.65;2.38;;;;;;;;;;5086316;28;20493;-69
2023/03/17 09:40:23;;;;;;;5.70;2.50;;;;;;;;;;5084592;28;20055;-69
2023/03/17 09:42:55;;;;;;;6.45;2.80;;;;;;;;;;5078908;28;20047;-69
2023/03/17 09:45:29;;;;;;;7.72;2.60;;;;;;;;;;5067846;28;20047;-69
2023/03/17 09:48:12;;;;;;;9.32;2.88;;;;;;;;;;5068345;28;20044;-69
2023/03/17 09:50:44;;;;;;;4.80;2.63;;;;;;;;;;5087294;28;20055;-69
2023/03/17 09:53:16;;;;;;;5.93;2.80;;;;;;;;;;5079544;28;20349;-69
2023/03/17 09:55:44;;;;;;;6.75;3.15;;;;;;;;;;5086431;28;20044;-69
2023/03/17 09:58:12;;;;;;;7.25;2.92;;;;;;;;;;5088874;28;20576;-69
2023/03/17 10:00:39;;;;;;;7.70;3.05;;;;;;;;;;5087554;28;20047;-69
2023/03/17 10:03:10;;;;;;;9.23;3.40;;;;;;;;;;5086624;28;20058;-69
2023/03/17 10:05:38;;;;;;;6.32;3.28;;;;;;;;;;5088505;28;20406;-69
2023/03/17 10:08:12;;;;;;;9.32;3.10;;;;;;;;;;5086416;28;20483;-69
2023/03/17 10:10:42;;;;;;;8.02;3.42;;;;;;;;;;5089244;28;20500;-69
2023/03/17 10:13:17;;;;;;;11.43;3.47;;;;;;;;;;5089549;28;20127;-69
2023/03/17 10:15:48;;;;;;;8.32;3.40;;;;;;;;;;5088322;28;20097;-69
2023/03/17 10:18:17;;;;;;;8.63;3.28;;;;;;;;;;5087233;28;20046;-69
2023/03/17 10:20:47;;;;;;;6.65;3.15;;;;;;;;;;5083423;28;20150;-69
2023/03/17 10:23:18;;;;;;;6.07;3.05;;;;;;;;;;5088043;28;20435;-69
2023/03/17 10:25:47;;;;;;;6.15;3.55;;;;;;;;;;5083690;28;20044;-69
2023/03/17 10:28:21;;;;;;;7.25;3.90;;;;;;;;;;5089526;28;20586;-69
2023/03/17 10:30:48;;;;;;;13.52;3.65;;;;;;;;;;5083267;28;20044;-69
2023/03/17 10:33:16;;;;;;;7.85;3.30;;;;;;;;;;5078711;28;20059;-69
2023/03/17 10:35:43;;;;;;;9.95;3.80;;;;;;;;;;5087633;28;20101;-69
2023/03/17 10:38:19;;;;;;;5.68;3.42;;;;;;;;;;5065891;28;20048;-69
2023/03/17 10:40:48;;;;;;;7.18;3.08;;;;;;;;;;5086280;28;20127;-69
2023/03/17 10:43:20;;;;;;;7.30;3.72;;;;;;;;;;5068428;28;20054;-69
2023/03/17 10:45:55;;;;;;;7.20;3.45;;;;;;;;;;5086629;28;20052;-69
2023/03/17 10:48:23;;;;;;;8.65;3.58;;;;;;;;;;5081851;28;20043;-69
2023/03/17 10:50:51;;;;;;;6.35;3.30;;;;;;;;;;5043525;28;20094;-69
2023/03/17 10:53:26;;;;;;;9.13;3.55;;;;;;;;;;5043423;28;20049;-70
2023/03/17 10:55:55;;;;;;;8.80;4.88;;;;;;;;;;5043236;28;20387;-69
2023/03/17 10:58:25;;;;;;;10.07;3.78;;;;;;;;;;5043042;28;20049;-69
2023/03/17 11:00:55;;;;;;;8.23;3.63;;;;;;;;;;5047254;28;20045;-69
2023/03/17 11:03:23;;;;;;;8.52;3.78;;;;;;;;;;5044413;28;20049;-69
2023/03/17 11:05:55;;;;;;;6.30;3.60;;;;;;;;;;5042379;28;20041;-69
2023/03/17 11:08:24;;;;;;;5.55;3.42;;;;;;;;;;5048023;28;20069;-69
2023/03/17 11:10:55;;;;;;;8.25;4.18;;;;;;;;;;5042082;28;20095;-69
2023/03/17 11:13:22;;;;;;;8.77;3.90;;;;;;;;;;5039245;28;20073;-69
2023/03/17 11:15:53;;;;;;;11.00;3.97;;;;;;;;;;5049631;28;20056;-69
2023/03/17 11:18:22;;;;;;;7.25;4.07;;;;;;;;;;5038091;28;20056;-69
2023/03/17 11:20:56;;;;;;;10.38;3.72;;;;;;;;;;5044609;28;20078;-69
2023/03/17 11:23:33;;;;;;;7.72;3.70;;;;;;;;;;5044045;28;20389;-69
2023/03/17 11:26:15;;;;;;;8.77;3.70;;;;;;;;;;5041789;28;20432;-69
2023/03/17 11:28:44;;;;;;;6.95;4.03;;;;;;;;;;5037388;28;20125;-69
2023/03/17 11:31:16;;;;;;;8.43;3.90;;;;;;;;;;5043301;28;20510;-69
2023/03/17 11:33:50;;;;;;;6.57;3.85;;;;;;;;;;5034459;28;20067;-69
2023/03/17 11:36:26;;;;;;;8.98;4.10;;;;;;;;;;5047290;28;20400;-69
2023/03/17 11:38:59;;;;;;;8.65;4.28;;;;;;;;;;5046609;28;20053;-69
2023/03/17 11:41:31;;;;;;;9.27;4.40;;;;;;;;;;5047308;28;20507;-69
2023/03/17 11:44:12;;;;;;;6.95;4.13;;;;;;;;;;5040640;28;20053;-69
2023/03/17 11:46:43;;;;;;;9.77;4.00;;;;;;;;;;5046540;28;20044;-70
2023/03/17 11:49:13;;;;;;;11.80;4.53;;;;;;;;;;5051429;28;20059;-69
2023/03/17 11:51:49;;;;;;;8.57;3.90;;;;;;;;;;5083939;28;20510;-69
2023/03/17 11:54:23;;;;;;;7.70;4.45;;;;;;;;;;5080978;28;20542;-69
2023/03/17 11:56:51;;;;;;;8.38;4.25;;;;;;;;;;5066870;28;20055;-66
2023/03/17 11:59:24;;;;;;;7.93;4.20;;;;;;;;;;5084283;28;20078;-66
2023/03/17 12:01:55;;;;;;;8.57;4.40;;;;;;;;;;5084337;28;20149;-66
2023/03/17 12:04:28;;;;;;;5.68;3.97;;;;;;;;;;5085448;28;20055;-66
2023/03/17 12:07:00;;;;;;;8.88;4.70;;;;;;;;;;5084126;28;20055;-66
2023/03/17 12:09:31;;;;;;;7.82;4.60;;;;;;;;;;5066468;28;20054;-66
2023/03/17 12:12:00;;;;;;;7.07;4.10;;;;;;;;;;5086821;28;20048;-66
2023/03/17 12:14:29;;;;;;;6.68;4.03;;;;;;;;;;5081041;28;20072;-66
2023/03/17 12:17:00;;;;;;;7.75;4.40;;;;;;;;;;5087045;28;20479;-66
2023/03/17 12:19:28;;;;;;;8.73;4.57;;;;;;;;;;5083298;28;20049;-66
2023/03/17 12:21:58;;;;;;;11.05;4.82;;;;;;;;;;5084854;28;20052;-66
2023/03/17 12:24:28;;;;;;;7.53;4.10;;;;;;;;;;5086298;28;20059;-66
2023/03/17 12:26:59;;;;;;;9.80;4.80;;;;;;;;;;5079273;28;20051;-66
2023/03/17 12:29:31;;;;;;;9.23;4.53;;;;;;;;;;5084776;28;20045;-67
2023/03/17 12:32:02;;;;;;;7.78;4.45;;;;;;;;;;5084711;28;20056;-67
2023/03/17 12:34:32;;;;;;;6.53;4.28;;;;;;;;;;5084316;28;20055;-66
2023/03/17 12:36:59;;;;;;;11.18;4.88;;;;;;;;;;5087606;28;20517;-66
2023/03/17 12:39:30;;;;;;;7.53;4.72;;;;;;;;;;5083253;28;20049;-66
2023/03/17 12:42:14;;;;;;;8.38;4.70;;;;;;;;;;5084554;28;20055;-66
2023/03/17 12:44:48;;;;;;;9.77;5.00;;;;;;;;;;5083347;28;20671;-66
2023/03/17 12:47:33;;;;;;;9.35;5.10;;;;;;;;;;5065771;28;20052;-66
2023/03/17 12:50:09;;;;;;;6.63;4.53;;;;;;;;;;5062400;28;20052;-66
2023/03/17 12:52:43;;;;;;;7.60;4.75;;;;;;;;;;5080603;28;20040;-66
2023/03/17 12:55:13;;;;;;;9.57;5.25;;;;;;;;;;5060463;28;20059;-67
2023/03/17 12:57:42;;;;;;;7.90;4.07;;;;;;;;;;5081272;28;20123;-66
2023/03/17 13:00:17;;;;;;;9.82;4.53;;;;;;;;;;5084208;28;20051;-66
2023/03/17 13:02:46;;;;;;;10.10;4.85;;;;;;;;;;5081549;28;20442;-66
2023/03/17 13:05:15;;;;;;;7.93;5.13;;;;;;;;;;5086658;28;20048;-66
2023/03/17 13:07:47;;;;;;;8.18;4.38;;;;;;;;;;5082958;28;20580;-66
2023/03/17 13:10:22;;;;;;;8.02;4.90;;;;;;;;;;5085788;28;20056;-66
2023/03/17 13:13:05;;;;;;;9.32;4.53;;;;;;;;;;5089467;28;20059;-66
2023/03/17 13:15:47;;;;;;;12.70;5.53;;;;;;;;;;5083679;28;20553;-66
2023/03/17 13:18:33;;;;;;;7.55;4.95;;;;;;;;;;5077783;28;20044;-67
2023/03/17 13:21:12;;;;;;;8.38;4.70;;;;;;;;;;5076199;28;20055;-66
2023/03/17 13:23:41;;;;;;;11.23;4.90;;;;;;;;;;5083383;28;20043;-69
2023/03/17 13:26:11;;;;;;;12.02;4.80;;;;;;;;;;5084744;28;20422;-67
2023/03/17 13:28:46;;;;;;;11.45;4.85;;;;;;;;;;5066422;28;20128;-66
2023/03/17 13:31:30;;;;;;;12.25;5.20;;;;;;;;;;5086377;28;20055;-66
2023/03/17 13:33:57;;;;;;;9.45;5.03;;;;;;;;;;5079108;28;20040;-66
2023/03/17 13:36:42;;;;;;;7.07;4.40;;;;;;;;;;5090429;28;20040;-66
2023/03/17 13:39:29;;;;;;;7.75;4.90;;;;;;;;;;5076376;28;20101;-66
2023/03/17 13:42:05;;;;;;;9.30;4.85;;;;;;;;;;5085010;28;20082;-66
2023/03/17 13:44:37;;;;;;;9.82;4.75;;;;;;;;;;5085257;28;20121;-66
2023/03/17 13:47:26;;;;;;;8.65;4.75;;;;;;;;;;5084694;28;20059;-66
2023/03/17 13:49:55;;;;;;;12.65;4.80;;;;;;;;;;5076509;28;20060;-66
2023/03/17 13:52:27;;;;;;;7.13;4.70;;;;;;;;;;5084463;28;20047;-66
2023/03/17 13:55:01;;;;;;;13.43;5.20;;;;;;;;;;5080683;28;20053;-66
2023/03/17 13:57:29;;;;;;;11.15;5.30;;;;;;;;;;5085644;28;20054;-65
2023/03/17 14:00:01;;;;;;;9.20;5.38;;;;;;;;;;5090246;28;20495;-66
2023/03/17 14:02:30;;;;;;;7.82;5.07;;;;;;;;;;5082422;28;20044;-66
2023/03/17 14:04:59;;;;;;;9.88;5.63;;;;;;;;;;5085188;28;20407;-65
2023/03/17 14:07:28;;;;;;;10.25;5.10;;;;;;;;;;5088949;28;20051;-65
2023/03/17 14:09:57;;;;;;;9.13;5.43;;;;;;;;;;5070976;28;20062;-66
2023/03/17 14:12:26;;;;;;;11.00;5.40;;;;;;;;;;5083030;28;20048;-65
2023/03/17 14:14:55;;;;;;;11.40;5.57;;;;;;;;;;5082630;28;20062;-66
2023/03/17 14:17:25;;;;;;;9.65;5.20;;;;;;;;;;5088321;28;20059;-65
2023/03/17 14:20:05;;;;;;;8.77;4.90;;;;;;;;;;5088845;28;20053;-66
2023/03/17 14:22:32;;;;;;;7.13;4.85;;;;;;;;;;5089068;28;20594;-65
2023/03/17 14:25:02;;;;;;;9.85;4.93;;;;;;;;;;5083623;28;20051;-65
2023/03/17 14:27:32;;;;;;;8.95;5.72;;;;;;;;;;5082210;28;20044;-66
2023/03/17 14:30:05;;;;;;;13.63;5.95;;;;;;;;;;5085609;28;20051;-65
2023/03/17 14:32:34;;;;;;;9.63;5.38;;;;;;;;;;5090049;28;20070;-65
2023/03/17 14:35:01;;;;;;;11.32;5.90;;;;;;;;;;5085405;28;20411;-65
2023/03/17 14:37:28;;;;;;;11.13;5.75;;;;;;;;;;5070932;28;20118;-65
2023/03/17 14:39:57;;;;;;;11.60;5.82;;;;;;;;;;5088935;28;20044;-65
2023/03/17 14:42:26;;;;;;;13.52;5.45;;;;;;;;;;5087398;28;20052;-65
2023/03/17 14:45:00;;;;;;;10.77;5.65;;;;;;;;;;5089150;28;20043;-65
2023/03/17 14:47:28;;;;;;;12.23;6.10;;;;;;;;;;5086975;28;20044;-66
2023/03/17 14:49:57;;;;;;;12.00;5.30;;;;;;;;;;5089525;28;20506;-65
2023/03/17 14:52:26;;;;;;;10.93;5.80;;;;;;;;;;5080166;28;20056;-65
2023/03/17 14:54:54;;;;;;;11.93;5.60;;;;;;;;;;5087423;28;20070;-65